sensor_id;sensor_type;location;lat;lon;timestamp;temperature;humidity
758;DHT22;363;48.764;9.172;2023-08-30T00:01:06;14.70;99.90
758;DHT22;363;48.764;9.172;2023-08-30T00:03:33;14.60;99.90
758;DHT22;363;48.764;9.172;2023-08-30T00:06:06;14.60;99.90
758;DHT22;363;48.764;9.172;2023-08-30T00:08:32;14.50;99.90
758;DHT22;363;48.764;9.172;2023-08-30T00:10:58;14.60;99.90
758;DHT22;363;48.764;9.172;2023-08-30T00:13:28;14.70;99.90
758;DHT22;363;48.764;9.172;2023-08-30T00:15:54;14.80;99.90
758;DHT22;363;48.764;9.172;2023-08-30T00:18:20;14.70;99.90
758;DHT22;363;48.764;9.172;2023-08-30T00:20:46;14.60;99.90
758;DHT22;363;48.764;9.172;2023-08-30T00:23:12;14.90;99.90
758;DHT22;363;48.764;9.172;2023-08-30T00:25:37;14.80;99.90
758;DHT22;363;48.764;9.172;2023-08-30T00:28:03;14.60;99.90
758;DHT22;363;48.764;9.172;2023-08-30T00:30:29;14.70;99.90
758;DHT22;363;48.764;9.172;2023-08-30T00:32:54;14.80;99.90
758;DHT22;363;48.764;9.172;2023-08-30T00:35:20;14.90;99.90
758;DHT22;363;48.764;9.172;2023-08-30T00:37:46;14.50;99.90
758;DHT22;363;48.764;9.172;2023-08-30T00:40:11;14.70;99.90
758;DHT22;363;48.764;9.172;2023-08-30T00:42:37;14.70;99.90
758;DHT22;363;48.764;9.172;2023-08-30T00:45:03;14.80;99.90
758;DHT22;363;48.764;9.172;2023-08-30T00:47:29;14.60;99.90
758;DHT22;363;48.764;9.172;2023-08-30T00:49:55;14.90;99.90
758;DHT22;363;48.764;9.172;2023-08-30T00:52:21;14.90;99.90
758;DHT22;363;48.764;9.172;2023-08-30T00:54:46;14.90;99.90
758;DHT22;363;48.764;9.172;2023-08-30T00:57:12;14.50;99.90
758;DHT22;363;48.764;9.172;2023-08-30T00:59:38;14.60;99.90
758;DHT22;363;48.764;9.172;2023-08-30T01:02:04;14.50;99.90
758;DHT22;363;48.764;9.172;2023-08-30T01:04:30;14.60;99.90
758;DHT22;363;48.764;9.172;2023-08-30T01:06:56;14.60;99.90
758;DHT22;363;48.764;9.172;2023-08-30T01:09:22;14.60;99.90
758;DHT22;363;48.764;9.172;2023-08-30T01:12:17;14.50;99.90
758;DHT22;363;48.764;9.172;2023-08-30T01:15:00;14.50;99.90
758;DHT22;363;48.764;9.172;2023-08-30T01:17:29;14.60;99.90
758;DHT22;363;48.764;9.172;2023-08-30T01:20:01;14.50;99.90
758;DHT22;363;48.764;9.172;2023-08-30T01:27:34;14.70;99.90
758;DHT22;363;48.764;9.172;2023-08-30T01:30:02;14.80;99.90
758;DHT22;363;48.764;9.172;2023-08-30T01:32:30;14.50;99.90
758;DHT22;363;48.764;9.172;2023-08-30T01:34:56;14.70;99.90
758;DHT22;363;48.764;9.172;2023-08-30T01:37:24;14.50;99.90
758;DHT22;363;48.764;9.172;2023-08-30T01:39:52;14.60;99.90
758;DHT22;363;48.764;9.172;2023-08-30T01:42:17;14.90;99.90
758;DHT22;363;48.764;9.172;2023-08-30T01:44:49;14.70;99.90
758;DHT22;363;48.764;9.172;2023-08-30T01:47:15;14.70;99.90
758;DHT22;363;48.764;9.172;2023-08-30T01:49:42;14.50;99.90
758;DHT22;363;48.764;9.172;2023-08-30T01:52:09;14.50;99.90
758;DHT22;363;48.764;9.172;2023-08-30T01:54:36;14.30;99.90
758;DHT22;363;48.764;9.172;2023-08-30T01:57:03;14.40;99.90
758;DHT22;363;48.764;9.172;2023-08-30T01:59:29;14.40;99.90
758;DHT22;363;48.764;9.172;2023-08-30T02:01:55;14.40;99.90
758;DHT22;363;48.764;9.172;2023-08-30T02:04:22;14.50;99.90
758;DHT22;363;48.764;9.172;2023-08-30T02:06:54;14.50;99.90
758;DHT22;363;48.764;9.172;2023-08-30T02:09:28;14.20;99.90
758;DHT22;363;48.764;9.172;2023-08-30T02:11:56;14.20;99.90
758;DHT22;363;48.764;9.172;2023-08-30T02:14:27;14.20;99.90
758;DHT22;363;48.764;9.172;2023-08-30T02:16:55;14.10;99.90
758;DHT22;363;48.764;9.172;2023-08-30T02:19:21;14.10;99.90
758;DHT22;363;48.764;9.172;2023-08-30T02:21:47;14.00;99.90
758;DHT22;363;48.764;9.172;2023-08-30T02:24:13;14.10;99.90
758;DHT22;363;48.764;9.172;2023-08-30T02:26:39;14.40;99.90
758;DHT22;363;48.764;9.172;2023-08-30T02:29:05;14.20;99.90
758;DHT22;363;48.764;9.172;2023-08-30T02:31:31;14.10;99.90
758;DHT22;363;48.764;9.172;2023-08-30T02:33:57;14.10;99.90
758;DHT22;363;48.764;9.172;2023-08-30T02:36:22;14.20;99.90
758;DHT22;363;48.764;9.172;2023-08-30T02:38:48;14.30;99.90
758;DHT22;363;48.764;9.172;2023-08-30T02:41:14;14.30;99.90
758;DHT22;363;48.764;9.172;2023-08-30T02:43:39;14.00;99.90
758;DHT22;363;48.764;9.172;2023-08-30T02:46:05;13.80;99.90
758;DHT22;363;48.764;9.172;2023-08-30T02:48:31;14.20;99.90
758;DHT22;363;48.764;9.172;2023-08-30T02:50:57;14.10;99.90
758;DHT22;363;48.764;9.172;2023-08-30T02:53:23;14.10;99.90
758;DHT22;363;48.764;9.172;2023-08-30T02:55:49;14.10;99.90
758;DHT22;363;48.764;9.172;2023-08-30T02:58:15;14.00;99.90
758;DHT22;363;48.764;9.172;2023-08-30T03:00:41;14.00;99.90
758;DHT22;363;48.764;9.172;2023-08-30T03:03:06;13.90;99.90
758;DHT22;363;48.764;9.172;2023-08-30T03:05:32;14.20;99.90
758;DHT22;363;48.764;9.172;2023-08-30T03:07:57;13.70;99.90
758;DHT22;363;48.764;9.172;2023-08-30T03:10:24;13.90;99.90
758;DHT22;363;48.764;9.172;2023-08-30T03:12:49;13.90;99.90
758;DHT22;363;48.764;9.172;2023-08-30T03:15:15;13.80;99.90
758;DHT22;363;48.764;9.172;2023-08-30T03:17:41;14.00;99.90
758;DHT22;363;48.764;9.172;2023-08-30T03:20:07;14.10;99.90
758;DHT22;363;48.764;9.172;2023-08-30T03:22:32;14.20;99.90
758;DHT22;363;48.764;9.172;2023-08-30T03:24:58;13.90;99.90
758;DHT22;363;48.764;9.172;2023-08-30T03:27:24;14.20;99.90
758;DHT22;363;48.764;9.172;2023-08-30T03:29:50;14.00;99.90
758;DHT22;363;48.764;9.172;2023-08-30T03:32:17;13.80;99.90
758;DHT22;363;48.764;9.172;2023-08-30T03:34:46;14.10;99.90
758;DHT22;363;48.764;9.172;2023-08-30T03:37:15;14.10;99.90
758;DHT22;363;48.764;9.172;2023-08-30T03:39:41;14.00;99.90
758;DHT22;363;48.764;9.172;2023-08-30T03:42:07;13.80;99.90
758;DHT22;363;48.764;9.172;2023-08-30T03:44:33;13.80;99.90
758;DHT22;363;48.764;9.172;2023-08-30T03:46:59;14.00;99.90
758;DHT22;363;48.764;9.172;2023-08-30T03:49:24;14.00;99.90
758;DHT22;363;48.764;9.172;2023-08-30T03:51:50;13.80;99.90
758;DHT22;363;48.764;9.172;2023-08-30T03:54:15;13.90;99.90
758;DHT22;363;48.764;9.172;2023-08-30T03:56:44;14.20;99.90
758;DHT22;363;48.764;9.172;2023-08-30T03:59:11;14.00;99.90
758;DHT22;363;48.764;9.172;2023-08-30T04:01:36;13.90;99.90
758;DHT22;363;48.764;9.172;2023-08-30T04:04:02;13.90;99.90
758;DHT22;363;48.764;9.172;2023-08-30T04:06:28;14.00;99.90
758;DHT22;363;48.764;9.172;2023-08-30T04:08:54;14.00;99.90
758;DHT22;363;48.764;9.172;2023-08-30T04:11:20;14.20;99.90
758;DHT22;363;48.764;9.172;2023-08-30T04:13:45;14.20;99.90
758;DHT22;363;48.764;9.172;2023-08-30T04:16:11;14.30;99.90
758;DHT22;363;48.764;9.172;2023-08-30T04:18:37;14.00;99.90
758;DHT22;363;48.764;9.172;2023-08-30T04:21:03;14.00;99.90
758;DHT22;363;48.764;9.172;2023-08-30T04:23:31;14.10;99.90
758;DHT22;363;48.764;9.172;2023-08-30T04:25:57;14.00;99.90
758;DHT22;363;48.764;9.172;2023-08-30T04:28:22;14.20;99.90
758;DHT22;363;48.764;9.172;2023-08-30T04:30:48;14.30;99.90
758;DHT22;363;48.764;9.172;2023-08-30T04:33:14;13.90;99.90
758;DHT22;363;48.764;9.172;2023-08-30T04:35:40;14.30;99.90
758;DHT22;363;48.764;9.172;2023-08-30T04:38:05;14.10;99.90
758;DHT22;363;48.764;9.172;2023-08-30T04:40:31;14.20;99.90
758;DHT22;363;48.764;9.172;2023-08-30T04:43:01;14.40;99.90
758;DHT22;363;48.764;9.172;2023-08-30T04:45:26;14.20;99.90
758;DHT22;363;48.764;9.172;2023-08-30T04:47:53;14.10;99.90
758;DHT22;363;48.764;9.172;2023-08-30T04:50:18;14.20;99.90
758;DHT22;363;48.764;9.172;2023-08-30T04:52:44;14.30;99.90
758;DHT22;363;48.764;9.172;2023-08-30T04:55:10;14.40;99.90
758;DHT22;363;48.764;9.172;2023-08-30T04:57:35;14.40;99.90
758;DHT22;363;48.764;9.172;2023-08-30T05:00:01;14.30;99.90
758;DHT22;363;48.764;9.172;2023-08-30T05:02:30;14.60;99.90
758;DHT22;363;48.764;9.172;2023-08-30T05:04:56;14.50;99.90
758;DHT22;363;48.764;9.172;2023-08-30T05:07:22;14.30;99.90
758;DHT22;363;48.764;9.172;2023-08-30T05:09:48;14.60;99.90
758;DHT22;363;48.764;9.172;2023-08-30T05:12:13;14.50;99.90
758;DHT22;363;48.764;9.172;2023-08-30T05:14:39;14.60;99.90
758;DHT22;363;48.764;9.172;2023-08-30T05:17:06;14.40;99.90
758;DHT22;363;48.764;9.172;2023-08-30T05:19:32;14.40;99.90
758;DHT22;363;48.764;9.172;2023-08-30T05:21:57;14.30;99.90
758;DHT22;363;48.764;9.172;2023-08-30T05:24:23;14.40;99.90
758;DHT22;363;48.764;9.172;2023-08-30T05:26:49;14.40;99.90
758;DHT22;363;48.764;9.172;2023-08-30T05:29:14;15.10;99.90
758;DHT22;363;48.764;9.172;2023-08-30T05:31:41;14.50;99.90
758;DHT22;363;48.764;9.172;2023-08-30T05:34:06;14.50;99.90
758;DHT22;363;48.764;9.172;2023-08-30T05:36:32;14.40;99.90
758;DHT22;363;48.764;9.172;2023-08-30T05:38:58;14.50;99.90
758;DHT22;363;48.764;9.172;2023-08-30T05:41:23;14.50;99.90
758;DHT22;363;48.764;9.172;2023-08-30T05:43:50;14.50;99.90
758;DHT22;363;48.764;9.172;2023-08-30T05:46:16;14.50;99.90
758;DHT22;363;48.764;9.172;2023-08-30T05:48:42;14.40;99.90
758;DHT22;363;48.764;9.172;2023-08-30T05:51:07;14.80;99.90
758;DHT22;363;48.764;9.172;2023-08-30T05:53:33;14.40;99.90
758;DHT22;363;48.764;9.172;2023-08-30T05:55:59;14.70;99.90
758;DHT22;363;48.764;9.172;2023-08-30T05:58:24;14.70;99.90
758;DHT22;363;48.764;9.172;2023-08-30T06:00:50;14.70;99.90
758;DHT22;363;48.764;9.172;2023-08-30T06:03:15;14.80;99.90
758;DHT22;363;48.764;9.172;2023-08-30T06:05:42;14.90;99.90
758;DHT22;363;48.764;9.172;2023-08-30T06:08:08;15.00;99.90
758;DHT22;363;48.764;9.172;2023-08-30T06:10:38;15.00;99.90
758;DHT22;363;48.764;9.172;2023-08-30T06:13:04;15.00;99.90
758;DHT22;363;48.764;9.172;2023-08-30T06:15:30;14.90;99.90
758;DHT22;363;48.764;9.172;2023-08-30T06:17:55;15.10;99.90
758;DHT22;363;48.764;9.172;2023-08-30T06:20:21;14.80;99.90
758;DHT22;363;48.764;9.172;2023-08-30T06:22:46;15.00;99.90
758;DHT22;363;48.764;9.172;2023-08-30T06:25:12;15.30;99.90
758;DHT22;363;48.764;9.172;2023-08-30T06:27:42;15.30;99.90
758;DHT22;363;48.764;9.172;2023-08-30T06:30:10;15.30;99.90
758;DHT22;363;48.764;9.172;2023-08-30T06:32:35;15.20;99.90
758;DHT22;363;48.764;9.172;2023-08-30T06:35:01;15.20;99.90
758;DHT22;363;48.764;9.172;2023-08-30T06:37:27;15.50;99.90
758;DHT22;363;48.764;9.172;2023-08-30T06:39:52;15.40;99.90
758;DHT22;363;48.764;9.172;2023-08-30T06:42:18;15.50;99.90
758;DHT22;363;48.764;9.172;2023-08-30T06:44:44;15.40;99.90
758;DHT22;363;48.764;9.172;2023-08-30T06:47:09;15.60;99.90
758;DHT22;363;48.764;9.172;2023-08-30T06:49:35;15.50;99.90
758;DHT22;363;48.764;9.172;2023-08-30T06:52:01;15.90;99.90
758;DHT22;363;48.764;9.172;2023-08-30T06:54:29;15.90;99.90
758;DHT22;363;48.764;9.172;2023-08-30T06:56:59;15.80;99.90
758;DHT22;363;48.764;9.172;2023-08-30T06:59:26;15.70;99.90
758;DHT22;363;48.764;9.172;2023-08-30T07:01:52;15.90;99.90
758;DHT22;363;48.764;9.172;2023-08-30T07:04:17;16.00;99.90
758;DHT22;363;48.764;9.172;2023-08-30T07:06:43;16.10;99.90
758;DHT22;363;48.764;9.172;2023-08-30T07:09:09;15.90;99.90
758;DHT22;363;48.764;9.172;2023-08-30T07:11:37;16.30;99.90
758;DHT22;363;48.764;9.172;2023-08-30T07:14:02;16.20;99.90
758;DHT22;363;48.764;9.172;2023-08-30T07:16:32;16.20;99.90
758;DHT22;363;48.764;9.172;2023-08-30T07:18:58;16.40;99.90
758;DHT22;363;48.764;9.172;2023-08-30T07:21:24;16.50;99.90
758;DHT22;363;48.764;9.172;2023-08-30T07:23:49;16.60;99.90
758;DHT22;363;48.764;9.172;2023-08-30T07:26:15;16.20;99.90
758;DHT22;363;48.764;9.172;2023-08-30T07:28:41;16.40;99.90
758;DHT22;363;48.764;9.172;2023-08-30T07:31:06;16.50;99.90
758;DHT22;363;48.764;9.172;2023-08-30T07:33:32;16.50;99.90
758;DHT22;363;48.764;9.172;2023-08-30T07:35:58;16.60;99.90
758;DHT22;363;48.764;9.172;2023-08-30T07:38:24;16.40;99.90
758;DHT22;363;48.764;9.172;2023-08-30T07:40:49;16.60;99.90
758;DHT22;363;48.764;9.172;2023-08-30T07:43:15;16.60;99.90
758;DHT22;363;48.764;9.172;2023-08-30T07:45:41;16.70;99.90
758;DHT22;363;48.764;9.172;2023-08-30T07:48:06;16.50;99.90
758;DHT22;363;48.764;9.172;2023-08-30T07:50:32;16.50;99.90
758;DHT22;363;48.764;9.172;2023-08-30T07:52:57;16.60;99.90
758;DHT22;363;48.764;9.172;2023-08-30T07:55:23;16.50;99.90
758;DHT22;363;48.764;9.172;2023-08-30T07:57:49;16.60;99.90
758;DHT22;363;48.764;9.172;2023-08-30T08:00:14;16.50;99.90
758;DHT22;363;48.764;9.172;2023-08-30T08:02:40;16.80;99.90
758;DHT22;363;48.764;9.172;2023-08-30T08:05:06;16.70;99.90
758;DHT22;363;48.764;9.172;2023-08-30T08:07:32;16.60;99.90
758;DHT22;363;48.764;9.172;2023-08-30T08:09:58;17.10;99.90
758;DHT22;363;48.764;9.172;2023-08-30T08:12:24;17.30;99.90
758;DHT22;363;48.764;9.172;2023-08-30T08:14:49;16.90;99.90
758;DHT22;363;48.764;9.172;2023-08-30T08:17:15;17.40;99.90
758;DHT22;363;48.764;9.172;2023-08-30T08:19:41;17.40;99.90
758;DHT22;363;48.764;9.172;2023-08-30T08:22:08;17.50;99.90
758;DHT22;363;48.764;9.172;2023-08-30T08:24:34;17.60;99.90
758;DHT22;363;48.764;9.172;2023-08-30T08:26:59;17.60;99.90
758;DHT22;363;48.764;9.172;2023-08-30T08:29:27;17.80;99.90
758;DHT22;363;48.764;9.172;2023-08-30T08:31:56;17.90;99.90
758;DHT22;363;48.764;9.172;2023-08-30T08:34:21;18.30;99.90
758;DHT22;363;48.764;9.172;2023-08-30T08:36:47;18.20;99.90
758;DHT22;363;48.764;9.172;2023-08-30T08:39:12;18.40;99.90
758;DHT22;363;48.764;9.172;2023-08-30T08:41:43;18.30;99.90
758;DHT22;363;48.764;9.172;2023-08-30T08:44:11;18.60;99.90
758;DHT22;363;48.764;9.172;2023-08-30T08:46:38;18.70;99.90
758;DHT22;363;48.764;9.172;2023-08-30T08:51:36;18.80;99.90
758;DHT22;363;48.764;9.172;2023-08-30T08:54:05;19.50;99.90
758;DHT22;363;48.764;9.172;2023-08-30T08:56:32;19.40;99.90
758;DHT22;363;48.764;9.172;2023-08-30T08:58:58;19.50;99.90
758;DHT22;363;48.764;9.172;2023-08-30T09:01:25;19.70;99.90
758;DHT22;363;48.764;9.172;2023-08-30T09:03:51;20.20;99.90
758;DHT22;363;48.764;9.172;2023-08-30T09:06:17;20.30;99.90
758;DHT22;363;48.764;9.172;2023-08-30T09:08:43;20.30;99.90
758;DHT22;363;48.764;9.172;2023-08-30T09:11:09;20.20;99.90
758;DHT22;363;48.764;9.172;2023-08-30T09:13:35;20.30;99.90
758;DHT22;363;48.764;9.172;2023-08-30T09:16:01;20.10;99.90
758;DHT22;363;48.764;9.172;2023-08-30T09:18:28;20.50;99.90
758;DHT22;363;48.764;9.172;2023-08-30T09:21:13;20.40;99.90
758;DHT22;363;48.764;9.172;2023-08-30T09:23:39;20.40;99.90
758;DHT22;363;48.764;9.172;2023-08-30T09:26:04;20.60;99.90
758;DHT22;363;48.764;9.172;2023-08-30T09:28:31;20.60;99.90
758;DHT22;363;48.764;9.172;2023-08-30T09:30:59;20.60;99.90
758;DHT22;363;48.764;9.172;2023-08-30T09:33:33;20.60;99.90
758;DHT22;363;48.764;9.172;2023-08-30T09:36:00;20.60;99.90
758;DHT22;363;48.764;9.172;2023-08-30T09:38:26;20.60;99.90
758;DHT22;363;48.764;9.172;2023-08-30T09:40:52;20.90;99.90
758;DHT22;363;48.764;9.172;2023-08-30T09:43:27;21.10;99.90
758;DHT22;363;48.764;9.172;2023-08-30T09:45:53;21.10;99.90
758;DHT22;363;48.764;9.172;2023-08-30T09:48:22;21.30;99.90
758;DHT22;363;48.764;9.172;2023-08-30T09:50:53;21.40;99.90
758;DHT22;363;48.764;9.172;2023-08-30T09:53:21;21.40;99.90
758;DHT22;363;48.764;9.172;2023-08-30T09:55:49;21.30;99.90
758;DHT22;363;48.764;9.172;2023-08-30T09:58:16;21.30;99.90
758;DHT22;363;48.764;9.172;2023-08-30T10:00:43;21.40;99.30
758;DHT22;363;48.764;9.172;2023-08-30T10:03:09;21.50;99.70
758;DHT22;363;48.764;9.172;2023-08-30T10:05:35;21.50;98.80
758;DHT22;363;48.764;9.172;2023-08-30T10:08:02;21.80;98.10
758;DHT22;363;48.764;9.172;2023-08-30T10:10:31;21.90;97.60
758;DHT22;363;48.764;9.172;2023-08-30T10:12:57;21.80;97.20
758;DHT22;363;48.764;9.172;2023-08-30T10:15:23;21.90;96.80
758;DHT22;363;48.764;9.172;2023-08-30T10:17:53;21.90;95.90
758;DHT22;363;48.764;9.172;2023-08-30T10:20:20;21.90;95.70
758;DHT22;363;48.764;9.172;2023-08-30T10:22:47;22.00;95.40
758;DHT22;363;48.764;9.172;2023-08-30T10:25:19;22.10;95.40
758;DHT22;363;48.764;9.172;2023-08-30T10:27:47;22.00;95.60
758;DHT22;363;48.764;9.172;2023-08-30T10:30:15;21.80;95.80
758;DHT22;363;48.764;9.172;2023-08-30T10:32:42;22.00;96.10
758;DHT22;363;48.764;9.172;2023-08-30T10:35:12;22.00;95.20
758;DHT22;363;48.764;9.172;2023-08-30T10:37:41;21.90;95.20
758;DHT22;363;48.764;9.172;2023-08-30T10:40:08;22.00;94.40
758;DHT22;363;48.764;9.172;2023-08-30T10:42:34;21.80;92.50
758;DHT22;363;48.764;9.172;2023-08-30T10:45:07;21.90;93.20
758;DHT22;363;48.764;9.172;2023-08-30T10:47:35;22.00;93.00
758;DHT22;363;48.764;9.172;2023-08-30T10:50:08;22.20;93.00
758;DHT22;363;48.764;9.172;2023-08-30T10:52:34;22.00;92.60
758;DHT22;363;48.764;9.172;2023-08-30T10:57:35;22.60;93.10
758;DHT22;363;48.764;9.172;2023-08-30T11:00:19;22.60;92.00
758;DHT22;363;48.764;9.172;2023-08-30T11:02:46;22.80;91.80
758;DHT22;363;48.764;9.172;2023-08-30T11:05:14;22.70;91.10
758;DHT22;363;48.764;9.172;2023-08-30T11:07:40;22.90;91.50
758;DHT22;363;48.764;9.172;2023-08-30T11:10:06;23.10;90.90
758;DHT22;363;48.764;9.172;2023-08-30T11:12:33;23.10;90.70
758;DHT22;363;48.764;9.172;2023-08-30T11:14:58;23.20;90.30
758;DHT22;363;48.764;9.172;2023-08-30T11:17:26;23.20;90.80
758;DHT22;363;48.764;9.172;2023-08-30T11:19:57;23.20;90.20
758;DHT22;363;48.764;9.172;2023-08-30T11:22:24;23.30;90.50
758;DHT22;363;48.764;9.172;2023-08-30T11:24:50;23.30;89.30
758;DHT22;363;48.764;9.172;2023-08-30T11:27:19;23.40;89.00
758;DHT22;363;48.764;9.172;2023-08-30T11:29:44;23.40;89.70
758;DHT22;363;48.764;9.172;2023-08-30T11:32:10;23.60;89.20
758;DHT22;363;48.764;9.172;2023-08-30T11:34:36;23.60;87.30
758;DHT22;363;48.764;9.172;2023-08-30T11:37:02;23.70;85.80
758;DHT22;363;48.764;9.172;2023-08-30T11:39:31;23.60;86.50
758;DHT22;363;48.764;9.172;2023-08-30T11:41:56;23.20;86.70
758;DHT22;363;48.764;9.172;2023-08-30T11:44:28;23.20;88.00
758;DHT22;363;48.764;9.172;2023-08-30T11:47:00;22.90;90.10
758;DHT22;363;48.764;9.172;2023-08-30T11:49:29;22.20;92.00
758;DHT22;363;48.764;9.172;2023-08-30T11:51:55;21.80;92.40
758;DHT22;363;48.764;9.172;2023-08-30T11:54:24;21.50;92.60
758;DHT22;363;48.764;9.172;2023-08-30T11:56:50;21.70;93.70
758;DHT22;363;48.764;9.172;2023-08-30T11:59:20;21.40;94.00
758;DHT22;363;48.764;9.172;2023-08-30T12:01:46;20.60;94.20
758;DHT22;363;48.764;9.172;2023-08-30T12:04:12;20.30;95.80
758;DHT22;363;48.764;9.172;2023-08-30T12:06:38;19.90;97.00
758;DHT22;363;48.764;9.172;2023-08-30T12:09:03;19.70;96.90
758;DHT22;363;48.764;9.172;2023-08-30T12:11:32;19.70;99.00
758;DHT22;363;48.764;9.172;2023-08-30T12:14:03;19.40;99.90
758;DHT22;363;48.764;9.172;2023-08-30T12:16:29;19.20;99.90
758;DHT22;363;48.764;9.172;2023-08-30T12:18:55;18.60;99.90
758;DHT22;363;48.764;9.172;2023-08-30T12:21:20;18.70;99.90
758;DHT22;363;48.764;9.172;2023-08-30T12:23:46;18.70;99.90
758;DHT22;363;48.764;9.172;2023-08-30T12:26:12;18.60;99.90
758;DHT22;363;48.764;9.172;2023-08-30T12:28:42;18.60;99.90
758;DHT22;363;48.764;9.172;2023-08-30T12:31:10;18.40;99.90
758;DHT22;363;48.764;9.172;2023-08-30T12:33:37;18.30;99.90
758;DHT22;363;48.764;9.172;2023-08-30T12:36:03;18.40;99.90
758;DHT22;363;48.764;9.172;2023-08-30T12:38:29;18.60;99.90
758;DHT22;363;48.764;9.172;2023-08-30T12:40:56;18.50;99.90
758;DHT22;363;48.764;9.172;2023-08-30T12:43:22;18.40;99.90
758;DHT22;363;48.764;9.172;2023-08-30T12:45:49;18.10;99.90
758;DHT22;363;48.764;9.172;2023-08-30T12:48:17;18.50;99.90
758;DHT22;363;48.764;9.172;2023-08-30T12:50:45;18.50;99.90
758;DHT22;363;48.764;9.172;2023-08-30T12:53:11;18.60;99.90
758;DHT22;363;48.764;9.172;2023-08-30T12:55:37;18.80;99.90
758;DHT22;363;48.764;9.172;2023-08-30T12:58:06;18.90;99.90
758;DHT22;363;48.764;9.172;2023-08-30T13:00:32;18.90;99.90
758;DHT22;363;48.764;9.172;2023-08-30T13:02:58;18.80;99.90
758;DHT22;363;48.764;9.172;2023-08-30T13:05:24;18.80;99.90
758;DHT22;363;48.764;9.172;2023-08-30T13:07:50;19.00;99.90
758;DHT22;363;48.764;9.172;2023-08-30T13:10:16;19.00;99.90
758;DHT22;363;48.764;9.172;2023-08-30T13:12:42;19.40;99.90
758;DHT22;363;48.764;9.172;2023-08-30T13:15:08;19.40;99.90
758;DHT22;363;48.764;9.172;2023-08-30T13:17:34;19.70;99.90
758;DHT22;363;48.764;9.172;2023-08-30T13:20:00;19.80;99.90
758;DHT22;363;48.764;9.172;2023-08-30T13:22:26;20.00;99.90
758;DHT22;363;48.764;9.172;2023-08-30T13:24:52;20.10;99.90
758;DHT22;363;48.764;9.172;2023-08-30T13:27:18;20.30;99.90
758;DHT22;363;48.764;9.172;2023-08-30T13:29:44;20.10;99.90
758;DHT22;363;48.764;9.172;2023-08-30T13:32:10;20.10;99.90
758;DHT22;363;48.764;9.172;2023-08-30T13:34:35;20.20;99.90
758;DHT22;363;48.764;9.172;2023-08-30T13:37:01;20.30;99.90
758;DHT22;363;48.764;9.172;2023-08-30T13:39:27;20.40;99.90
758;DHT22;363;48.764;9.172;2023-08-30T13:41:52;20.60;99.90
758;DHT22;363;48.764;9.172;2023-08-30T13:44:18;20.50;99.90
758;DHT22;363;48.764;9.172;2023-08-30T13:46:44;20.80;99.90
758;DHT22;363;48.764;9.172;2023-08-30T13:49:10;21.00;99.90
758;DHT22;363;48.764;9.172;2023-08-30T13:51:36;20.90;99.90
758;DHT22;363;48.764;9.172;2023-08-30T13:54:02;20.90;99.30
758;DHT22;363;48.764;9.172;2023-08-30T13:56:28;21.00;97.50
758;DHT22;363;48.764;9.172;2023-08-30T13:58:55;21.10;97.20
758;DHT22;363;48.764;9.172;2023-08-30T14:01:21;21.30;96.80
758;DHT22;363;48.764;9.172;2023-08-30T14:03:47;21.20;96.40
758;DHT22;363;48.764;9.172;2023-08-30T14:06:13;21.00;95.70
758;DHT22;363;48.764;9.172;2023-08-30T14:08:38;21.10;96.60
758;DHT22;363;48.764;9.172;2023-08-30T14:11:04;21.30;97.60
758;DHT22;363;48.764;9.172;2023-08-30T14:13:30;21.40;98.10
758;DHT22;363;48.764;9.172;2023-08-30T14:16:07;21.10;96.50
758;DHT22;363;48.764;9.172;2023-08-30T14:18:34;20.80;96.50
758;DHT22;363;48.764;9.172;2023-08-30T14:21:00;20.90;96.50
758;DHT22;363;48.764;9.172;2023-08-30T14:23:26;21.10;97.30
758;DHT22;363;48.764;9.172;2023-08-30T14:25:59;20.90;97.90
758;DHT22;363;48.764;9.172;2023-08-30T14:28:26;21.00;97.80
758;DHT22;363;48.764;9.172;2023-08-30T14:30:52;21.10;97.90
758;DHT22;363;48.764;9.172;2023-08-30T14:33:18;21.10;98.60
758;DHT22;363;48.764;9.172;2023-08-30T14:35:44;21.00;97.90
758;DHT22;363;48.764;9.172;2023-08-30T14:38:09;20.90;98.20
758;DHT22;363;48.764;9.172;2023-08-30T14:40:35;21.00;98.80
758;DHT22;363;48.764;9.172;2023-08-30T14:43:02;20.90;98.10
758;DHT22;363;48.764;9.172;2023-08-30T14:45:29;20.70;99.90
758;DHT22;363;48.764;9.172;2023-08-30T14:47:54;20.60;99.90
758;DHT22;363;48.764;9.172;2023-08-30T14:50:20;20.40;99.40
758;DHT22;363;48.764;9.172;2023-08-30T14:52:45;20.30;99.90
758;DHT22;363;48.764;9.172;2023-08-30T14:55:11;20.10;99.90
758;DHT22;363;48.764;9.172;2023-08-30T14:57:37;20.00;99.90
758;DHT22;363;48.764;9.172;2023-08-30T15:00:03;19.90;99.90
758;DHT22;363;48.764;9.172;2023-08-30T15:02:29;20.00;99.90
758;DHT22;363;48.764;9.172;2023-08-30T15:04:56;19.90;99.90
758;DHT22;363;48.764;9.172;2023-08-30T15:07:22;19.70;99.90
758;DHT22;363;48.764;9.172;2023-08-30T15:09:47;19.60;99.90
758;DHT22;363;48.764;9.172;2023-08-30T15:12:13;19.60;99.90
758;DHT22;363;48.764;9.172;2023-08-30T15:14:39;19.90;99.90
758;DHT22;363;48.764;9.172;2023-08-30T15:17:07;19.90;99.90
758;DHT22;363;48.764;9.172;2023-08-30T15:19:33;20.00;99.90
758;DHT22;363;48.764;9.172;2023-08-30T15:21:59;20.10;99.90
758;DHT22;363;48.764;9.172;2023-08-30T15:24:24;20.20;99.90
758;DHT22;363;48.764;9.172;2023-08-30T15:26:50;20.10;99.90
758;DHT22;363;48.764;9.172;2023-08-30T15:29:16;19.90;99.90
758;DHT22;363;48.764;9.172;2023-08-30T15:31:42;20.10;99.90
758;DHT22;363;48.764;9.172;2023-08-30T15:34:08;20.30;99.90
758;DHT22;363;48.764;9.172;2023-08-30T15:36:33;20.30;99.90
758;DHT22;363;48.764;9.172;2023-08-30T15:38:59;20.20;99.90
758;DHT22;363;48.764;9.172;2023-08-30T15:41:25;20.30;99.90
758;DHT22;363;48.764;9.172;2023-08-30T15:43:50;20.50;99.90
758;DHT22;363;48.764;9.172;2023-08-30T15:46:16;20.40;99.90
758;DHT22;363;48.764;9.172;2023-08-30T15:48:42;20.30;99.90
758;DHT22;363;48.764;9.172;2023-08-30T15:51:08;20.10;99.90
758;DHT22;363;48.764;9.172;2023-08-30T15:53:35;20.10;99.90
758;DHT22;363;48.764;9.172;2023-08-30T15:56:01;20.10;99.90
758;DHT22;363;48.764;9.172;2023-08-30T15:58:26;20.30;99.90
758;DHT22;363;48.764;9.172;2023-08-30T16:00:52;20.00;99.90
758;DHT22;363;48.764;9.172;2023-08-30T16:03:18;20.30;99.90
758;DHT22;363;48.764;9.172;2023-08-30T16:05:44;20.10;99.90
758;DHT22;363;48.764;9.172;2023-08-30T16:08:10;20.30;99.90
758;DHT22;363;48.764;9.172;2023-08-30T16:10:37;19.90;99.90
758;DHT22;363;48.764;9.172;2023-08-30T16:13:03;20.00;99.90
758;DHT22;363;48.764;9.172;2023-08-30T16:15:29;20.10;99.90
758;DHT22;363;48.764;9.172;2023-08-30T16:17:55;19.90;99.90
758;DHT22;363;48.764;9.172;2023-08-30T16:20:22;20.00;99.90
758;DHT22;363;48.764;9.172;2023-08-30T16:22:50;19.80;99.90
758;DHT22;363;48.764;9.172;2023-08-30T16:25:15;19.70;99.90
758;DHT22;363;48.764;9.172;2023-08-30T16:27:41;19.70;99.90
758;DHT22;363;48.764;9.172;2023-08-30T16:30:07;19.70;99.90
758;DHT22;363;48.764;9.172;2023-08-30T16:32:34;19.50;99.90
758;DHT22;363;48.764;9.172;2023-08-30T16:34:59;19.60;99.90
758;DHT22;363;48.764;9.172;2023-08-30T16:37:25;19.70;99.90
758;DHT22;363;48.764;9.172;2023-08-30T16:39:50;19.70;99.90